Time;durP1;ratioP1;P1;durP2;ratioP2;P2;SDS_P1;SDS_P2;PMS_P1;PMS_P2;Temp;Humidity;BMP_temperature;BMP_pressure;BME280_temperature;BME280_humidity;BME280_pressure;Samples;Min_cycle;Max_cycle;Signal;HPM_P1;HPM_P2
2023/07/16 00:00:51;;;;;;;;;;;18.00;99.90;;;;;;5006903;28;19948;-83
2023/07/16 00:03:16;;;;;;;;;;;18.00;99.90;;;;;;5000959;28;20342;-83
2023/07/16 00:05:42;;;;;;;;;;;17.90;99.90;;;;;;5004249;28;19924;-83
2023/07/16 00:08:11;;;;;;;;;;;17.90;99.90;;;;;;5038677;28;20291;-83
2023/07/16 00:10:36;;;;;;;;;;;17.80;99.90;;;;;;5038996;28;19978;-82
2023/07/16 00:13:03;;;;;;;;;;;17.90;99.90;;;;;;5024471;28;19925;-83
2023/07/16 00:15:29;;;;;;;;;;;17.90;99.90;;;;;;5023020;28;19913;-83
2023/07/16 00:17:55;;;;;;;;;;;17.80;99.90;;;;;;5024185;28;20063;-82
2023/07/16 00:20:23;;;;;;;;;;;17.80;99.90;;;;;;5000884;28;20395;-82
2023/07/16 00:22:48;;;;;;;;;;;17.90;99.90;;;;;;5005533;28;19913;-82
2023/07/16 00:25:15;;;;;;;;;;;17.90;99.90;;;;;;5001528;28;19933;-82
2023/07/16 00:27:40;;;;;;;;;;;17.90;99.90;;;;;;5005925;28;19913;-83
2023/07/16 00:30:06;;;;;;;;;;;17.90;99.90;;;;;;5005369;28;19913;-82
2023/07/16 00:32:31;;;;;;;;;;;18.00;99.90;;;;;;5023642;28;20015;-82
2023/07/16 00:34:57;;;;;;;;;;;18.00;99.90;;;;;;5004817;28;19908;-82
2023/07/16 00:37:24;;;;;;;;;;;18.00;99.90;;;;;;5000955;28;19909;-82
2023/07/16 00:39:50;;;;;;;;;;;18.00;99.90;;;;;;5022576;28;20036;-82
2023/07/16 00:42:16;;;;;;;;;;;18.00;99.90;;;;;;5005405;28;19921;-82
2023/07/16 00:44:41;;;;;;;;;;;18.00;99.90;;;;;;5001010;28;19919;-82
2023/07/16 00:47:08;;;;;;;;;;;18.00;99.90;;;;;;5001375;28;19924;-80
2023/07/16 00:49:33;;;;;;;;;;;18.10;99.90;;;;;;5022635;28;19970;-81
2023/07/16 00:52:00;;;;;;;;;;;18.10;99.90;;;;;;5022968;28;19913;-82
2023/07/16 00:54:25;;;;;;;;;;;18.10;99.90;;;;;;5004711;28;19967;-82
2023/07/16 00:56:51;;;;;;;;;;;18.00;99.90;;;;;;5024229;28;19917;-82
2023/07/16 00:59:16;;;;;;;;;;;18.00;99.90;;;;;;4999917;28;19924;-82
2023/07/16 01:01:42;;;;;;;;;;;18.00;99.90;;;;;;5023110;28;19913;-82
2023/07/16 01:04:08;;;;;;;;;;;17.90;99.90;;;;;;5021311;28;19924;-81
2023/07/16 01:06:41;;;;;;;;;;;17.90;99.90;;;;;;5000068;28;19920;-82
2023/07/16 01:09:16;;;;;;;;;;;17.90;99.90;;;;;;5023406;28;19913;-82
2023/07/16 01:11:42;;;;;;;;;;;17.90;99.90;;;;;;5023397;28;19928;-80
2023/07/16 01:14:08;;;;;;;;;;;17.90;99.90;;;;;;5005223;28;19925;-81
2023/07/16 01:16:34;;;;;;;;;;;18.00;99.90;;;;;;5005538;28;19920;-81
2023/07/16 01:18:59;;;;;;;;;;;17.90;99.90;;;;;;5005914;28;19940;-82
2023/07/16 01:21:27;;;;;;;;;;;18.00;99.90;;;;;;5036832;28;20003;-82
2023/07/16 01:23:56;;;;;;;;;;;17.90;99.90;;;;;;5038581;28;19912;-82
2023/07/16 01:26:40;;;;;;;;;;;17.90;99.90;;;;;;5037805;28;19999;-83
2023/07/16 01:29:06;;;;;;;;;;;17.80;99.90;;;;;;5037296;28;19912;-83
2023/07/16 01:31:33;;;;;;;;;;;17.70;99.90;;;;;;5021958;28;19920;-82
2023/07/16 01:33:59;;;;;;;;;;;17.60;99.90;;;;;;5018756;28;19920;-82
2023/07/16 01:36:24;;;;;;;;;;;17.50;99.90;;;;;;4999970;28;19913;-82
2023/07/16 01:38:50;;;;;;;;;;;17.40;99.90;;;;;;5004434;28;19925;-82
2023/07/16 01:41:15;;;;;;;;;;;17.30;99.90;;;;;;4999249;28;20385;-81
2023/07/16 01:43:41;;;;;;;;;;;17.30;99.90;;;;;;5021823;28;19913;-82
2023/07/16 01:46:07;;;;;;;;;;;17.30;99.90;;;;;;5022634;28;19964;-82
2023/07/16 01:48:35;;;;;;;;;;;17.20;99.90;;;;;;5022703;28;20258;-81
2023/07/16 01:51:01;;;;;;;;;;;17.20;99.90;;;;;;5021947;28;19917;-81
2023/07/16 01:53:29;;;;;;;;;;;17.20;99.90;;;;;;5000716;28;19990;-82
2023/07/16 01:55:54;;;;;;;;;;;17.10;99.90;;;;;;5003746;28;19913;-82
2023/07/16 01:58:20;;;;;;;;;;;17.10;99.90;;;;;;5000145;28;19917;-81
2023/07/16 02:00:46;;;;;;;;;;;17.00;99.90;;;;;;5002079;28;19925;-82
2023/07/16 02:03:11;;;;;;;;;;;17.00;99.90;;;;;;5022492;28;19956;-82
2023/07/16 02:05:41;;;;;;;;;;;17.00;99.90;;;;;;5021425;28;19916;-81
2023/07/16 02:08:07;;;;;;;;;;;16.90;99.90;;;;;;5021674;28;19909;-82
2023/07/16 02:10:32;;;;;;;;;;;16.90;99.90;;;;;;5020757;28;20027;-81
2023/07/16 02:12:58;;;;;;;;;;;16.90;99.90;;;;;;5022163;28;20042;-81
2023/07/16 02:15:23;;;;;;;;;;;16.80;99.90;;;;;;5021450;28;19960;-81
2023/07/16 02:17:50;;;;;;;;;;;16.80;99.90;;;;;;4999462;28;19913;-82
2023/07/16 02:20:16;;;;;;;;;;;16.80;99.90;;;;;;4998658;28;19929;-81
2023/07/16 02:22:41;;;;;;;;;;;16.80;99.90;;;;;;5003808;28;20389;-82
2023/07/16 02:25:07;;;;;;;;;;;16.80;99.90;;;;;;5021927;28;19913;-81
2023/07/16 02:27:34;;;;;;;;;;;16.80;99.90;;;;;;4998182;28;20260;-81
2023/07/16 02:29:59;;;;;;;;;;;16.70;99.90;;;;;;4998257;28;19909;-81
2023/07/16 02:32:26;;;;;;;;;;;16.70;99.90;;;;;;4997156;28;19976;-81
2023/07/16 02:34:52;;;;;;;;;;;16.60;99.90;;;;;;5003826;28;20357;-82
2023/07/16 02:37:17;;;;;;;;;;;16.60;99.90;;;;;;5001137;28;19913;-81
2023/07/16 02:39:45;;;;;;;;;;;16.60;99.90;;;;;;4997842;28;19932;-81
2023/07/16 02:42:10;;;;;;;;;;;16.50;99.90;;;;;;5021068;28;19921;-80
2023/07/16 02:44:43;;;;;;;;;;;16.40;99.90;;;;;;5020880;28;19909;-81
2023/07/16 02:47:08;;;;;;;;;;;16.40;99.90;;;;;;4997156;28;20475;-81
2023/07/16 02:49:34;;;;;;;;;;;16.50;99.90;;;;;;5001098;28;19967;-81
2023/07/16 02:51:59;;;;;;;;;;;16.50;99.90;;;;;;5035445;28;19990;-81
2023/07/16 02:54:25;;;;;;;;;;;16.40;99.90;;;;;;5020798;28;19928;-81
2023/07/16 02:56:50;;;;;;;;;;;16.40;99.90;;;;;;5003503;28;19913;-81
2023/07/16 02:59:16;;;;;;;;;;;16.40;99.90;;;;;;4997629;28;20495;-81
2023/07/16 03:01:41;;;;;;;;;;;16.40;99.90;;;;;;5003516;28;19917;-81
2023/07/16 03:04:08;;;;;;;;;;;16.40;99.90;;;;;;5021809;28;20000;-81
2023/07/16 03:06:34;;;;;;;;;;;16.30;99.90;;;;;;5001795;28;19909;-81
2023/07/16 03:08:59;;;;;;;;;;;16.40;99.90;;;;;;5021025;28;19917;-81
2023/07/16 03:11:25;;;;;;;;;;;16.40;99.90;;;;;;5002262;28;19913;-81
2023/07/16 03:13:50;;;;;;;;;;;16.30;99.90;;;;;;5036565;28;19996;-81
2023/07/16 03:16:16;;;;;;;;;;;16.30;99.90;;;;;;5020099;28;19916;-81
2023/07/16 03:18:41;;;;;;;;;;;16.20;99.90;;;;;;4997110;28;19920;-81
2023/07/16 03:21:07;;;;;;;;;;;16.30;99.90;;;;;;5020792;28;19983;-80
2023/07/16 03:23:33;;;;;;;;;;;16.30;99.90;;;;;;5015992;28;19917;-81
2023/07/16 03:25:58;;;;;;;;;;;16.30;99.90;;;;;;5021049;28;19909;-81
2023/07/16 03:28:24;;;;;;;;;;;16.30;99.90;;;;;;5037164;28;19999;-81
2023/07/16 03:30:50;;;;;;;;;;;16.30;99.90;;;;;;5025905;28;19913;-81
2023/07/16 03:33:16;;;;;;;;;;;16.40;99.90;;;;;;5003295;28;19909;-82
2023/07/16 03:35:42;;;;;;;;;;;16.40;99.90;;;;;;5025873;28;22329;-81
2023/07/16 03:38:07;;;;;;;;;;;16.40;99.90;;;;;;5004678;28;19940;-82
2023/07/16 03:40:33;;;;;;;;;;;16.40;99.90;;;;;;5001319;28;20360;-81
2023/07/16 03:42:58;;;;;;;;;;;16.40;99.90;;;;;;5000254;28;19917;-81
2023/07/16 03:45:24;;;;;;;;;;;16.50;99.90;;;;;;5024309;28;20004;-81
2023/07/16 03:47:50;;;;;;;;;;;16.40;99.90;;;;;;5024298;28;19923;-81
2023/07/16 03:50:15;;;;;;;;;;;16.40;99.90;;;;;;5001785;28;19921;-80
2023/07/16 03:52:41;;;;;;;;;;;16.40;99.90;;;;;;5002027;28;19913;-81
2023/07/16 03:55:07;;;;;;;;;;;16.40;99.90;;;;;;5024714;28;19923;-80
2023/07/16 03:57:32;;;;;;;;;;;16.40;99.90;;;;;;5023197;28;19917;-81
2023/07/16 03:59:58;;;;;;;;;;;16.40;99.90;;;;;;5000410;28;19928;-80
2023/07/16 04:02:24;;;;;;;;;;;16.40;99.90;;;;;;5005136;28;19909;-80
2023/07/16 04:04:50;;;;;;;;;;;16.40;99.90;;;;;;5028131;28;19917;-80
2023/07/16 04:07:15;;;;;;;;;;;16.50;99.90;;;;;;5028491;28;19909;-80
2023/07/16 04:09:41;;;;;;;;;;;16.40;99.90;;;;;;5032704;28;19909;-79
2023/07/16 04:12:07;;;;;;;;;;;16.40;99.90;;;;;;5035684;28;19924;-80
2023/07/16 04:14:32;;;;;;;;;;;16.40;99.90;;;;;;5015226;28;19917;-81
2023/07/16 04:16:58;;;;;;;;;;;16.40;99.90;;;;;;5040165;28;20323;-80
2023/07/16 04:19:23;;;;;;;;;;;16.40;99.90;;;;;;5024132;28;20023;-80
2023/07/16 04:21:49;;;;;;;;;;;16.40;99.90;;;;;;5024718;28;20376;-81
2023/07/16 04:24:15;;;;;;;;;;;16.40;99.90;;;;;;5023852;28;19913;-81
2023/07/16 04:26:40;;;;;;;;;;;16.40;99.90;;;;;;5023238;28;19913;-80
2023/07/16 04:29:06;;;;;;;;;;;16.40;99.90;;;;;;5001104;28;20342;-80
2023/07/16 04:31:31;;;;;;;;;;;16.40;99.90;;;;;;5001143;28;19920;-80
2023/07/16 04:33:57;;;;;;;;;;;16.40;99.90;;;;;;5023442;28;19916;-80
2023/07/16 04:36:22;;;;;;;;;;;16.50;99.90;;;;;;5023109;28;19909;-80
2023/07/16 04:38:48;;;;;;;;;;;16.40;99.90;;;;;;5000452;28;19912;-80
2023/07/16 04:41:13;;;;;;;;;;;16.50;99.90;;;;;;5000446;28;19965;-80
2023/07/16 04:43:39;;;;;;;;;;;16.50;99.90;;;;;;5005829;28;19960;-79
2023/07/16 04:46:06;;;;;;;;;;;16.50;99.90;;;;;;4998762;28;19956;-82
2023/07/16 04:48:31;;;;;;;;;;;16.40;99.90;;;;;;5000773;28;19909;-81
2023/07/16 04:50:59;;;;;;;;;;;16.50;99.90;;;;;;5005608;28;19920;-81
2023/07/16 04:53:24;;;;;;;;;;;16.50;99.90;;;;;;4999281;28;20396;-81
2023/07/16 04:55:50;;;;;;;;;;;16.50;99.90;;;;;;5001327;28;19917;-81
2023/07/16 04:58:16;;;;;;;;;;;16.60;99.90;;;;;;5022843;28;20008;-81
2023/07/16 05:00:41;;;;;;;;;;;16.60;99.90;;;;;;5022435;28;19921;-81
2023/07/16 05:03:07;;;;;;;;;;;16.70;99.90;;;;;;5007010;28;19924;-80
2023/07/16 05:05:32;;;;;;;;;;;16.70;99.90;;;;;;5000745;28;19944;-80
2023/07/16 05:07:58;;;;;;;;;;;16.60;99.90;;;;;;5023850;28;19909;-81
2023/07/16 05:10:24;;;;;;;;;;;16.60;99.90;;;;;;5017439;28;20333;-80
2023/07/16 05:12:49;;;;;;;;;;;16.60;99.90;;;;;;5019164;28;19975;-80
2023/07/16 05:15:15;;;;;;;;;;;16.50;99.90;;;;;;4999274;28;19920;-80
2023/07/16 05:17:42;;;;;;;;;;;16.50;99.90;;;;;;5022766;28;19916;-81
2023/07/16 05:20:09;;;;;;;;;;;16.50;99.90;;;;;;5002000;28;20539;-80
2023/07/16 05:22:35;;;;;;;;;;;16.60;99.90;;;;;;4998804;28;19913;-81
2023/07/16 05:25:00;;;;;;;;;;;16.60;99.90;;;;;;5023563;28;19967;-80
2023/07/16 05:27:26;;;;;;;;;;;16.60;99.90;;;;;;4998920;28;19951;-80
2023/07/16 05:29:51;;;;;;;;;;;16.60;99.90;;;;;;5022474;28;20387;-81
2023/07/16 05:32:16;;;;;;;;;;;16.60;99.90;;;;;;5022870;28;19913;-80
2023/07/16 05:34:42;;;;;;;;;;;16.70;99.90;;;;;;5000924;28;19917;-80
2023/07/16 05:37:08;;;;;;;;;;;16.70;99.90;;;;;;5006079;28;20408;-80
2023/07/16 05:39:33;;;;;;;;;;;16.70;99.90;;;;;;4999126;28;19921;-80
2023/07/16 05:42:01;;;;;;;;;;;16.70;99.90;;;;;;5006249;28;20380;-80
2023/07/16 05:44:27;;;;;;;;;;;16.70;99.90;;;;;;5037226;28;19909;-80
2023/07/16 05:46:52;;;;;;;;;;;16.80;99.90;;;;;;5036693;28;19988;-81
2023/07/16 05:49:18;;;;;;;;;;;16.80;99.90;;;;;;5000694;28;19921;-81
2023/07/16 05:51:43;;;;;;;;;;;16.80;99.90;;;;;;4997905;28;19913;-80
2023/07/16 05:54:09;;;;;;;;;;;16.90;99.90;;;;;;5021942;28;19909;-80
2023/07/16 05:56:34;;;;;;;;;;;16.90;99.90;;;;;;5000707;28;19909;-81
2023/07/16 05:59:00;;;;;;;;;;;16.90;99.90;;;;;;4999673;28;20491;-80
2023/07/16 06:01:25;;;;;;;;;;;16.90;99.90;;;;;;5037064;28;19920;-81
2023/07/16 06:03:51;;;;;;;;;;;17.00;99.90;;;;;;5037479;28;19913;-80
2023/07/16 06:06:17;;;;;;;;;;;17.00;99.90;;;;;;5003668;28;19948;-81
2023/07/16 06:08:42;;;;;;;;;;;17.00;99.90;;;;;;4998542;28;19909;-80
2023/07/16 06:11:08;;;;;;;;;;;17.00;99.90;;;;;;5005282;28;19944;-80
2023/07/16 06:13:34;;;;;;;;;;;17.00;99.90;;;;;;5004476;28;19920;-80
2023/07/16 06:16:03;;;;;;;;;;;17.00;99.90;;;;;;5022397;28;20270;-80
2023/07/16 06:18:28;;;;;;;;;;;17.10;99.90;;;;;;5000490;28;19913;-80
2023/07/16 06:20:55;;;;;;;;;;;17.10;99.90;;;;;;5004378;28;19997;-79
2023/07/16 06:23:20;;;;;;;;;;;17.10;99.90;;;;;;5037823;28;19913;-80
2023/07/16 06:25:49;;;;;;;;;;;17.10;99.90;;;;;;5003690;28;20369;-81
2023/07/16 06:28:15;;;;;;;;;;;17.10;99.90;;;;;;5003688;28;20008;-80
2023/07/16 06:30:41;;;;;;;;;;;17.20;99.90;;;;;;5021042;28;20048;-81
2023/07/16 06:33:06;;;;;;;;;;;17.20;99.90;;;;;;5000030;28;20027;-81
2023/07/16 06:35:32;;;;;;;;;;;17.20;99.90;;;;;;5021525;28;19919;-80
2023/07/16 06:37:58;;;;;;;;;;;17.30;99.90;;;;;;5021055;28;19909;-80
2023/07/16 06:40:24;;;;;;;;;;;17.30;99.90;;;;;;4999266;28;19924;-80
2023/07/16 06:42:49;;;;;;;;;;;17.30;99.90;;;;;;5037183;28;19913;-80
2023/07/16 06:45:15;;;;;;;;;;;17.30;99.90;;;;;;5003947;28;19915;-80
2023/07/16 06:47:40;;;;;;;;;;;17.40;99.90;;;;;;4998327;28;19917;-80
2023/07/16 06:50:06;;;;;;;;;;;17.40;99.90;;;;;;5037060;28;20357;-80
2023/07/16 06:52:31;;;;;;;;;;;17.40;99.90;;;;;;4998758;28;19968;-79
2023/07/16 06:54:57;;;;;;;;;;;17.40;99.90;;;;;;5021392;28;19963;-79
2023/07/16 06:57:23;;;;;;;;;;;17.50;99.90;;;;;;5036220;28;19909;-79
2023/07/16 06:59:49;;;;;;;;;;;17.50;99.90;;;;;;5020789;28;20278;-79
2023/07/16 07:02:18;;;;;;;;;;;17.60;99.90;;;;;;5019776;28;19920;-80
2023/07/16 07:04:44;;;;;;;;;;;17.60;99.90;;;;;;5021690;28;19960;-80
2023/07/16 07:07:09;;;;;;;;;;;17.60;99.90;;;;;;4997092;28;19917;-80
2023/07/16 07:09:35;;;;;;;;;;;17.70;99.90;;;;;;5036607;28;20268;-80
2023/07/16 07:12:01;;;;;;;;;;;17.70;99.90;;;;;;5004111;28;19921;-80
2023/07/16 07:14:32;;;;;;;;;;;17.80;99.90;;;;;;4998063;28;19920;-79
2023/07/16 07:17:01;;;;;;;;;;;17.80;99.90;;;;;;5034856;28;19916;-79
2023/07/16 07:19:34;;;;;;;;;;;17.80;99.90;;;;;;5019102;28;19929;-80
2023/07/16 07:22:00;;;;;;;;;;;17.90;99.90;;;;;;5019585;28;20292;-80
2023/07/16 07:24:26;;;;;;;;;;;17.90;99.90;;;;;;5014942;28;19915;-81
2023/07/16 07:26:54;;;;;;;;;;;17.90;99.90;;;;;;4996362;28;19917;-80
2023/07/16 07:29:22;;;;;;;;;;;18.00;99.90;;;;;;5002332;28;20047;-81
2023/07/16 07:31:50;;;;;;;;;;;18.00;99.90;;;;;;4998646;28;19920;-80
2023/07/16 07:34:24;;;;;;;;;;;18.10;99.90;;;;;;5018546;28;19913;-79
2023/07/16 07:36:53;;;;;;;;;;;18.10;99.90;;;;;;5034395;28;19913;-78
2023/07/16 07:39:25;;;;;;;;;;;18.10;99.90;;;;;;5036313;28;19913;-78
2023/07/16 07:41:53;;;;;;;;;;;18.10;99.90;;;;;;5020189;28;19925;-78
2023/07/16 07:44:28;;;;;;;;;;;18.20;99.90;;;;;;5018049;28;19909;-79
2023/07/16 07:46:56;;;;;;;;;;;18.30;99.90;;;;;;5034042;28;19916;-79
2023/07/16 07:49:27;;;;;;;;;;;18.30;99.90;;;;;;5019020;28;20372;-78
2023/07/16 07:51:56;;;;;;;;;;;18.40;99.90;;;;;;5033562;28;19964;-79
2023/07/16 07:54:25;;;;;;;;;;;18.50;99.90;;;;;;5033436;28;19913;-79
2023/07/16 07:57:06;;;;;;;;;;;18.60;99.90;;;;;;5019922;28;19982;-81
2023/07/16 07:59:37;;;;;;;;;;;18.80;99.90;;;;;;5018772;28;19971;-79
2023/07/16 08:02:09;;;;;;;;;;;18.90;99.90;;;;;;5019487;28;20526;-79
2023/07/16 08:04:45;;;;;;;;;;;18.90;99.90;;;;;;4996061;28;19913;-82
2023/07/16 08:07:17;;;;;;;;;;;19.00;99.90;;;;;;5002898;28;20304;-82
2023/07/16 08:09:45;;;;;;;;;;;19.00;99.90;;;;;;5001341;28;20460;-80
2023/07/16 08:12:36;;;;;;;;;;;19.00;99.90;;;;;;5017306;28;19925;-81
2023/07/16 08:15:13;;;;;;;;;;;19.10;99.90;;;;;;5036722;28;19940;-81
2023/07/16 08:17:59;;;;;;;;;;;19.20;99.90;;;;;;5023429;28;19920;-81
2023/07/16 08:20:27;;;;;;;;;;;19.30;99.90;;;;;;5023763;28;19925;-79
2023/07/16 08:22:52;;;;;;;;;;;19.30;99.90;;;;;;5022599;28;19955;-80
2023/07/16 08:25:23;;;;;;;;;;;19.50;99.90;;;;;;5002830;28;21243;-80
2023/07/16 08:27:48;;;;;;;;;;;19.70;99.90;;;;;;5023301;28;19924;-79
2023/07/16 08:30:15;;;;;;;;;;;19.80;99.90;;;;;;5000119;28;20458;-79
2023/07/16 08:32:45;;;;;;;;;;;19.80;99.90;;;;;;5005611;28;19916;-80
2023/07/16 08:35:17;;;;;;;;;;;19.70;99.90;;;;;;5020570;28;19940;-79
2023/07/16 08:37:46;;;;;;;;;;;19.70;99.90;;;;;;5006044;28;19920;-79
2023/07/16 08:40:24;;;;;;;;;;;19.80;99.90;;;;;;4999967;28;19979;-79
2023/07/16 08:42:56;;;;;;;;;;;19.90;99.90;;;;;;5000663;28;19913;-79
2023/07/16 08:45:30;;;;;;;;;;;20.10;99.90;;;;;;5021597;28;20293;-80
2023/07/16 08:47:56;;;;;;;;;;;20.20;99.90;;;;;;5000114;28;20039;-79
2023/07/16 08:50:25;;;;;;;;;;;20.20;99.90;;;;;;5004458;28;20023;-79
2023/07/16 08:53:00;;;;;;;;;;;20.30;99.90;;;;;;5038094;28;20016;-82
2023/07/16 08:55:39;;;;;;;;;;;20.40;99.90;;;;;;5022527;28;19912;-82
2023/07/16 08:58:08;;;;;;;;;;;20.50;99.90;;;;;;5021891;28;19913;-81
2023/07/16 09:00:43;;;;;;;;;;;20.70;99.90;;;;;;5003655;28;19917;-81
2023/07/16 09:03:20;;;;;;;;;;;21.00;99.90;;;;;;5000361;28;19959;-82
2023/07/16 09:05:48;;;;;;;;;;;21.20;99.90;;;;;;5022370;28;19967;-82
2023/07/16 09:08:17;;;;;;;;;;;21.30;99.90;;;;;;5021176;28;20361;-82
2023/07/16 09:10:42;;;;;;;;;;;21.40;99.90;;;;;;5020873;28;19913;-81
2023/07/16 09:13:08;;;;;;;;;;;21.60;99.90;;;;;;5022320;28;19920;-82
2023/07/16 09:15:34;;;;;;;;;;;21.70;99.90;;;;;;5004592;28;19999;-81
2023/07/16 09:18:00;;;;;;;;;;;21.80;99.90;;;;;;4999477;28;19916;-84
2023/07/16 09:20:31;;;;;;;;;;;22.00;99.90;;;;;;5000483;28;20052;-83
2023/07/16 09:22:57;;;;;;;;;;;22.20;99.90;;;;;;5021695;28;19919;-82
2023/07/16 09:25:29;;;;;;;;;;;22.40;99.90;;;;;;5003348;28;20590;-83
2023/07/16 09:28:01;;;;;;;;;;;22.50;99.90;;;;;;5003953;28;19944;-82
2023/07/16 09:30:38;;;;;;;;;;;22.70;99.90;;;;;;5020999;28;19917;-81
2023/07/16 09:33:12;;;;;;;;;;;22.60;99.90;;;;;;5014103;28;19916;-81
2023/07/16 09:35:39;;;;;;;;;;;22.40;99.90;;;;;;5019786;28;19939;-83
2023/07/16 09:38:14;;;;;;;;;;;22.20;99.90;;;;;;4999577;28;19913;-83
2023/07/16 09:40:42;;;;;;;;;;;21.90;99.90;;;;;;4999097;28;20710;-83
2023/07/16 09:43:08;;;;;;;;;;;21.70;99.90;;;;;;5001397;28;19920;-80
2023/07/16 09:45:36;;;;;;;;;;;21.40;99.90;;;;;;5037004;28;19913;-81
2023/07/16 09:48:10;;;;;;;;;;;21.30;99.90;;;;;;5021267;28;20281;-80
2023/07/16 09:50:38;;;;;;;;;;;21.10;99.90;;;;;;5021168;28;19916;-79
2023/07/16 09:53:09;;;;;;;;;;;21.00;99.90;;;;;;5003532;28;19909;-80
2023/07/16 09:55:43;;;;;;;;;;;21.00;99.90;;;;;;5020827;28;19944;-80
2023/07/16 09:58:22;;;;;;;;;;;21.00;99.90;;;;;;5035293;28;20379;-80
2023/07/16 10:00:51;;;;;;;;;;;21.00;99.90;;;;;;5020904;28;20357;-79
2023/07/16 10:03:19;;;;;;;;;;;21.20;99.90;;;;;;5019966;28;20404;-79
2023/07/16 10:05:47;;;;;;;;;;;21.50;99.90;;;;;;4999383;28;19913;-79
2023/07/16 10:08:20;;;;;;;;;;;21.80;99.90;;;;;;4997687;28;19920;-79
2023/07/16 10:10:53;;;;;;;;;;;22.00;99.90;;;;;;5020260;28;19952;-81
2023/07/16 10:13:24;;;;;;;;;;;22.30;99.90;;;;;;4998701;28;19921;-81
2023/07/16 10:15:53;;;;;;;;;;;22.90;99.90;;;;;;4998769;28;19920;-81
2023/07/16 10:18:27;;;;;;;;;;;23.50;99.90;;;;;;5020202;28;19917;-80
2023/07/16 10:21:11;;;;;;;;;;;23.90;99.90;;;;;;5021354;28;19935;-81
2023/07/16 10:23:51;;;;;;;;;;;24.20;99.90;;;;;;4996343;28;19920;-80
2023/07/16 10:26:29;;;;;;;;;;;24.00;99.90;;;;;;4999070;28;19909;-80
2023/07/16 10:28:55;;;;;;;;;;;23.70;99.90;;;;;;5019224;28;19947;-81
2023/07/16 10:31:21;;;;;;;;;;;23.30;99.90;;;;;;4998209;28;19999;-80
2023/07/16 10:34:05;;;;;;;;;;;23.10;99.90;;;;;;5019561;28;19917;-80
2023/07/16 10:36:38;;;;;;;;;;;22.90;99.90;;;;;;5020863;28;19923;-79
2023/07/16 10:39:06;;;;;;;;;;;22.80;99.90;;;;;;5021283;28;19909;-79
2023/07/16 10:41:35;;;;;;;;;;;22.70;99.90;;;;;;5036088;28;20412;-79
2023/07/16 10:44:06;;;;;;;;;;;22.70;99.90;;;;;;4999769;28;19916;-79
2023/07/16 10:46:35;;;;;;;;;;;22.50;99.90;;;;;;5020968;28;19912;-80
2023/07/16 10:49:07;;;;;;;;;;;22.50;99.90;;;;;;5029833;28;19923;-79
2023/07/16 10:51:35;;;;;;;;;;;22.60;99.90;;;;;;5034551;28;19916;-78
2023/07/16 10:54:05;;;;;;;;;;;22.70;99.90;;;;;;5032107;28;19917;-80
2023/07/16 10:56:33;;;;;;;;;;;22.80;99.90;;;;;;5033523;28;19913;-78
2023/07/16 10:59:01;;;;;;;;;;;22.90;99.90;;;;;;5011188;28;20003;-80
2023/07/16 11:01:28;;;;;;;;;;;22.80;99.90;;;;;;5016863;28;19917;-79
2023/07/16 11:03:59;;;;;;;;;;;22.60;99.90;;;;;;5023259;28;19913;-78
2023/07/16 11:06:25;;;;;;;;;;;22.50;99.90;;;;;;5037027;28;19909;-79
2023/07/16 11:08:52;;;;;;;;;;;22.30;99.90;;;;;;5005961;28;20393;-79
2023/07/16 11:11:27;;;;;;;;;;;22.10;99.90;;;;;;5022839;28;20381;-79
2023/07/16 11:13:52;;;;;;;;;;;21.90;99.90;;;;;;5021522;28;19917;-79
2023/07/16 11:16:19;;;;;;;;;;;21.80;99.90;;;;;;5020497;28;19923;-80
2023/07/16 11:18:47;;;;;;;;;;;21.60;99.90;;;;;;5020753;28;19953;-80
2023/07/16 11:21:15;;;;;;;;;;;21.60;99.90;;;;;;5035062;28;19928;-79
2023/07/16 11:23:41;;;;;;;;;;;21.70;99.90;;;;;;4996819;28;20392;-79
2023/07/16 11:26:08;;;;;;;;;;;21.90;99.90;;;;;;5021401;28;19948;-79
2023/07/16 11:28:35;;;;;;;;;;;22.10;99.90;;;;;;5019899;28;19913;-78
2023/07/16 11:31:11;;;;;;;;;;;22.00;99.90;;;;;;5003596;28;19977;-79
2023/07/16 11:33:36;;;;;;;;;;;22.00;99.90;;;;;;4996427;28;19912;-79
2023/07/16 11:36:02;;;;;;;;;;;22.20;99.90;;;;;;4999396;28;19931;-79
2023/07/16 11:38:29;;;;;;;;;;;22.40;99.90;;;;;;4997872;28;19954;-80
2023/07/16 11:40:54;;;;;;;;;;;22.40;99.90;;;;;;5000999;28;20446;-80
2023/07/16 11:43:21;;;;;;;;;;;22.30;99.90;;;;;;5020581;28;19959;-78
2023/07/16 11:45:47;;;;;;;;;;;22.20;99.90;;;;;;4998911;28;19917;-83
2023/07/16 11:48:13;;;;;;;;;;;22.10;99.90;;;;;;5001023;28;19912;-83
2023/07/16 11:50:39;;;;;;;;;;;21.80;99.90;;;;;;5001476;28;19920;-82
2023/07/16 11:53:05;;;;;;;;;;;21.60;99.90;;;;;;5039699;28;19952;-81
2023/07/16 11:55:30;;;;;;;;;;;21.50;99.90;;;;;;5024464;28;19951;-81
2023/07/16 11:57:56;;;;;;;;;;;21.30;99.90;;;;;;5024735;28;20043;-82
2023/07/16 12:00:23;;;;;;;;;;;21.30;99.90;;;;;;5024085;28;19921;-82
2023/07/16 12:02:51;;;;;;;;;;;21.90;99.90;;;;;;5002096;28;19917;-83
2023/07/16 12:05:20;;;;;;;;;;;22.50;99.90;;;;;;5025415;28;19920;-82
2023/07/16 12:07:45;;;;;;;;;;;23.00;99.90;;;;;;5002708;28;20296;-82
2023/07/16 12:10:16;;;;;;;;;;;23.20;99.90;;;;;;5024093;28;19972;-81
2023/07/16 12:12:43;;;;;;;;;;;23.10;99.90;;;;;;5007902;28;19928;-81
2023/07/16 12:15:09;;;;;;;;;;;22.90;99.90;;;;;;5008253;28;19913;-82
2023/07/16 12:17:35;;;;;;;;;;;22.70;99.90;;;;;;5024889;28;19952;-82
2023/07/16 12:20:10;;;;;;;;;;;22.40;99.90;;;;;;5007590;28;20035;-82
2023/07/16 12:22:36;;;;;;;;;;;22.30;99.90;;;;;;5025346;28;19966;-83
2023/07/16 12:25:02;;;;;;;;;;;22.40;99.90;;;;;;5006454;28;19909;-82
2023/07/16 12:27:27;;;;;;;;;;;22.60;99.90;;;;;;5003835;28;21964;-81
2023/07/16 12:29:53;;;;;;;;;;;22.80;99.90;;;;;;5023587;28;19940;-83
2023/07/16 12:32:20;;;;;;;;;;;23.00;99.90;;;;;;5023553;28;19955;-83
2023/07/16 12:34:48;;;;;;;;;;;23.20;99.90;;;;;;4998313;28;19960;-83
2023/07/16 12:37:14;;;;;;;;;;;24.00;99.90;;;;;;5017395;28;20004;-82
2023/07/16 12:39:40;;;;;;;;;;;25.10;99.90;;;;;;5000045;28;20288;-82
2023/07/16 12:42:05;;;;;;;;;;;25.70;99.90;;;;;;5042592;28;19955;-82
2023/07/16 12:44:31;;;;;;;;;;;25.80;99.90;;;;;;5002614;28;19924;-83
2023/07/16 12:46:56;;;;;;;;;;;25.60;99.90;;;;;;5039440;28;19919;-82
2023/07/16 12:49:23;;;;;;;;;;;25.40;99.90;;;;;;5023030;28;19999;-83
2023/07/16 12:51:49;;;;;;;;;;;24.80;99.90;;;;;;5000640;28;19909;-83
2023/07/16 12:54:14;;;;;;;;;;;24.20;99.90;;;;;;5005299;28;19920;-83
2023/07/16 12:56:41;;;;;;;;;;;24.30;99.90;;;;;;5006956;28;20417;-83
2023/07/16 12:59:08;;;;;;;;;;;24.80;99.90;;;;;;5038666;28;19913;-82
2023/07/16 13:01:40;;;;;;;;;;;24.90;99.90;;;;;;5014939;28;19936;-81
2023/07/16 13:04:05;;;;;;;;;;;24.60;99.90;;;;;;5021303;28;20683;-81
2023/07/16 13:06:31;;;;;;;;;;;24.30;99.90;;;;;;5020710;28;20016;-82
2023/07/16 13:08:56;;;;;;;;;;;24.50;99.90;;;;;;5023045;28;20000;-82
2023/07/16 13:11:22;;;;;;;;;;;25.20;99.90;;;;;;5022905;28;20285;-82
2023/07/16 13:13:47;;;;;;;;;;;25.80;99.90;;;;;;4996319;28;19951;-82
2023/07/16 13:16:14;;;;;;;;;;;25.90;99.90;;;;;;5004268;28;20181;-83
2023/07/16 13:18:40;;;;;;;;;;;25.50;99.90;;;;;;5000868;28;20293;-82
2023/07/16 13:21:05;;;;;;;;;;;25.10;99.90;;;;;;4982757;28;19924;-82
2023/07/16 13:23:31;;;;;;;;;;;24.90;99.90;;;;;;5002714;28;19925;-82
2023/07/16 13:25:59;;;;;;;;;;;24.60;99.90;;;;;;4995789;28;19920;-83
2023/07/16 13:28:25;;;;;;;;;;;24.40;99.90;;;;;;5003102;28;19914;-81
2023/07/16 13:30:53;;;;;;;;;;;24.80;99.90;;;;;;4997433;28;19929;-82
2023/07/16 13:33:19;;;;;;;;;;;25.20;99.90;;;;;;5002595;28;20420;-84
2023/07/16 13:35:46;;;;;;;;;;;26.00;99.90;;;;;;5019962;28;19917;-84
2023/07/16 13:38:13;;;;;;;;;;;26.20;99.90;;;;;;5018465;28;20051;-82
2023/07/16 13:40:39;;;;;;;;;;;26.10;99.90;;;;;;5005313;28;19921;-83
2023/07/16 13:43:04;;;;;;;;;;;26.10;99.90;;;;;;5003414;28;19925;-82
2023/07/16 13:45:33;;;;;;;;;;;26.40;99.90;;;;;;5003470;28;19918;-83
2023/07/16 13:47:59;;;;;;;;;;;26.70;99.90;;;;;;5002970;28;20335;-83
2023/07/16 13:50:25;;;;;;;;;;;26.20;99.90;;;;;;5000535;28;19940;-82
2023/07/16 13:52:50;;;;;;;;;;;26.00;99.90;;;;;;5018148;28;20361;-82
2023/07/16 13:55:16;;;;;;;;;;;25.90;99.90;;;;;;5002707;28;19952;-82
2023/07/16 13:57:43;;;;;;;;;;;25.80;99.90;;;;;;4994773;28;19924;-82
2023/07/16 14:00:09;;;;;;;;;;;25.80;99.90;;;;;;5001893;28;19917;-83
2023/07/16 14:02:39;;;;;;;;;;;26.00;99.90;;;;;;4993850;28;19913;-83
2023/07/16 14:05:07;;;;;;;;;;;26.20;99.90;;;;;;5002569;28;19917;-82
2023/07/16 14:07:33;;;;;;;;;;;26.50;99.90;;;;;;4984728;28;19964;-84
2023/07/16 14:09:59;;;;;;;;;;;26.50;99.90;;;;;;4980822;28;19913;-82
2023/07/16 14:12:26;;;;;;;;;;;26.60;99.90;;;;;;5001039;28;20262;-82
2023/07/16 14:14:51;;;;;;;;;;;26.70;99.90;;;;;;5002755;28;19927;-83
2023/07/16 14:17:17;;;;;;;;;;;26.40;99.30;;;;;;4997588;28;19940;-82